Mac Dill Air Force Base
KMCF : now visible

Airfield :











YOU CAN JOIN US ON...

 
LOGIN :

Register | Disclaimer

   EN    FR    IT 

 









Legend :    VFR   Marginal VFR   IFR   Intensive IFR   Very Intensive IFR
Visi :
Ceiling :
>= 8 km
>= 3000ft
5 to 8 km
1000 to 3000 ft
1500m to 5 km
500 to 1000 ft
800 to 1500m
200 to 500 ft
< 800m
< 200 ft
Symbols :   Thunderstorms  Fog  Heavy snow  Heavy precipitations  Wind > 20 kt







- Airport Elevation : 14 ft


KMCF - Mac Dill Air Force Base

CURRENT METAR :
  • 210256Z AUTO 09012KT 10SM CLR 25/18 A3012 RMK AO2 SLP203 T02480180 52013 FZRANO $

EXPIRED METARs :
  • 210156Z AUTO 09013KT 10SM CLR 26/18 A3011 RMK AO2 SLP199 T02560178 FZRANO $
  • 210056Z AUTO 09013KT 10SM CLR 26/18 A3010 RMK AO2 SLP196 T02590183 FZRANO $

TAF TAF KMCF
Valid from the 21 at 01:00 until the 22 at 07:00 UTC


210100Z 2101/2207 08012KT 9999 SCT027 510053 QNH3007INS
BECMG 2114/2115 08012G18KT 9999 BKN027 QNH3013INS
BECMG 2117/2118 07015G25KT 9999 VCSH SCT035 QNH3004INS
BECMG 2123/2124 07015KT 9999 NSW SCT027 QNH3006INS
BECMG 2205/2206 07012KT 9999 SCT019 QNH3008INS TX28/2117Z TN23/2108Z
No reported NOTAMs for that airfield.



MET'MAP, your aeronautical weather chart ! - Copyright ORBIFLY December 2007 - Disclaimer

ORBIFLY MET'MAP TEAM :

Programming & Development : Alexandra Zaïnal
Concept & Development : Baudouin d'Aumeries
Co-Development & Prog : Marc-Olivier Méhu
Technical & hardware support : Manuel Goepfert

Contact : metmap@orbifly.com




SOURCES & CREDITS :

   NOAA       Earth
Advisory